Time,TemperatureF,DewpointF,PressureIn,WindDirection,WindDirectionDegrees,WindSpeedMPH,WindSpeedGustMPH,Humidity,HourlyPrecipIn,Conditions,Clouds,dailyrainin,SoftwareType,DateUTC
2013-04-08 00:00:00,42.4,31.5,30.01,NW,315,0.0,0.0,65,0.00,,---,0.02,VWS V14.01,2013-04-08 04:00:00,
2013-04-08 00:01:00,42.4,31.5,30.01,NW,315,0.0,0.0,65,0.00,,---,0.02,VWS V14.01,2013-04-08 04:01:00,
2013-04-08 00:06:00,42.0,31.1,30.01,North,0,0.0,0.0,65,0.00,,---,0.00,VWS V14.01,2013-04-08 04:06:00,
2013-04-08 00:11:00,41.9,31.4,30.02,WNW,292,0.0,0.0,66,0.00,,---,0.00,VWS V14.01,2013-04-08 04:11:00,
2013-04-08 00:16:00,41.7,30.8,30.02,NW,315,0.0,0.0,65,0.00,,---,0.00,VWS V14.01,2013-04-08 04:16:00,
2013-04-08 00:21:00,41.5,30.6,30.02,WSW,248,0.0,0.0,65,0.00,,---,0.00,VWS V14.01,2013-04-08 04:21:00,
2013-04-08 00:26:00,41.3,30.4,30.02,NW,315,0.0,0.0,65,0.00,,---,0.00,VWS V14.01,2013-04-08 04:26:00,
2013-04-08 00:31:00,41.1,30.2,30.03,West,270,0.0,0.0,65,0.00,,---,0.00,VWS V14.01,2013-04-08 04:31:00,
2013-04-08 00:36:00,41.0,30.1,30.03,WNW,292,0.0,0.0,65,0.00,,---,0.00,VWS V14.01,2013-04-08 04:36:00,
2013-04-08 00:41:00,40.8,30.0,30.03,WNW,292,0.0,0.0,65,0.00,,---,0.00,VWS V14.01,2013-04-08 04:41:00,
2013-04-08 00:46:00,40.4,30.0,30.03,NNW,338,0.0,0.0,66,0.00,,---,0.00,VWS V14.01,2013-04-08 04:46:00,
2013-04-08 00:51:00,40.2,29.8,30.04,ESE,112,0.0,0.0,66,0.00,,---,0.00,VWS V14.01,2013-04-08 04:51:00,
2013-04-08 00:56:00,40.1,29.7,30.04,ESE,112,0.0,0.0,66,0.00,,---,0.00,VWS V14.01,2013-04-08 04:56:00,
2013-04-08 01:01:00,39.7,29.3,30.05,West,270,0.0,0.0,66,0.00,,---,0.00,VWS V14.01,2013-04-08 05:01:00,
2013-04-08 01:06:00,39.7,29.3,30.05,NW,315,3.5,3.5,66,0.00,,---,0.00,VWS V14.01,2013-04-08 05:06:00,
2013-04-08 01:11:00,39.5,29.1,30.04,WNW,292,0.0,3.5,66,0.00,,---,0.00,VWS V14.01,2013-04-08 05:11:00,
2013-04-08 01:16:00,39.3,29.3,30.05,NW,315,0.0,0.0,67,0.00,,---,0.00,VWS V14.01,2013-04-08 05:16:00,
2013-04-08 01:21:00,39.0,29.0,30.05,NNE,22,0.0,0.0,67,0.00,,---,0.00,VWS V14.01,2013-04-08 05:21:00,
2013-04-08 01:26:00,38.8,28.8,30.05,NW,315,0.0,0.0,67,0.00,,---,0.00,VWS V14.01,2013-04-08 05:26:00,
2013-04-08 01:31:00,38.8,28.8,30.05,NW,315,1.1,1.1,67,0.00,,---,0.00,VWS V14.01,2013-04-08 05:31:00,
2013-04-08 01:36:00,38.4,28.4,30.05,NNW,338,0.0,0.0,67,0.00,,---,0.00,VWS V14.01,2013-04-08 05:36:00,
2013-04-08 01:41:00,38.3,28.7,30.06,NW,315,0.0,0.0,68,0.00,,---,0.00,VWS V14.01,2013-04-08 05:41:00,
2013-04-08 01:46:00,38.1,28.5,30.06,NW,315,0.0,0.0,68,0.00,,---,0.00,VWS V14.01,2013-04-08 05:46:00,
2013-04-08 01:51:00,37.9,28.3,30.06,WNW,292,0.0,0.0,68,0.00,,---,0.00,VWS V14.01,2013-04-08 05:51:00,
2013-04-08 01:57:00,37.9,28.3,30.06,WNW,292,0.0,0.0,68,0.00,,---,0.00,VWS V14.01,2013-04-08 05:57:00,
2013-04-08 02:01:00,37.9,28.3,30.06,WNW,292,0.0,0.0,68,0.00,,---,0.00,VWS V14.01,2013-04-08 06:01:00,
2013-04-08 02:06:00,37.7,28.1,30.06,WSW,248,0.0,0.0,68,0.00,,---,0.00,VWS V14.01,2013-04-08 06:06:00,
2013-04-08 02:12:00,37.5,27.9,30.06,WSW,248,0.0,0.0,68,0.00,,---,0.00,VWS V14.01,2013-04-08 06:12:00,
2013-04-08 02:16:00,37.5,27.9,30.06,West,270,0.0,0.0,68,0.00,,---,0.00,VWS V14.01,2013-04-08 06:16:00,
2013-04-08 02:22:00,37.5,27.9,30.06,NW,315,0.0,0.0,68,0.00,,---,0.00,VWS V14.01,2013-04-08 06:22:00,
2013-04-08 02:27:00,37.4,28.2,30.06,SSE,158,0.0,0.0,69,0.00,,---,0.00,VWS V14.01,2013-04-08 06:27:00,
2013-04-08 02:32:00,37.2,28.0,30.06,West,270,0.0,0.0,69,0.00,,---,0.00,VWS V14.01,2013-04-08 06:32:00,
2013-04-08 02:37:00,37.2,28.0,30.06,NNW,338,0.0,0.0,69,0.00,,---,0.00,VWS V14.01,2013-04-08 06:37:00,
2013-04-08 02:42:00,37.2,28.0,30.06,WNW,292,0.0,0.0,69,0.00,,---,0.00,VWS V14.01,2013-04-08 06:42:00,
2013-04-08 02:47:00,37.0,28.1,30.07,NW,315,0.0,0.0,70,0.00,,---,0.00,VWS V14.01,2013-04-08 06:47:00,
2013-04-08 02:52:00,36.8,28.0,30.06,North,0,0.0,0.0,70,0.00,,---,0.00,VWS V14.01,2013-04-08 06:52:00,
2013-04-08 02:57:00,36.8,28.0,30.06,NW,315,0.0,0.0,70,0.00,,---,0.00,VWS V14.01,2013-04-08 06:57:00,
2013-04-08 03:02:00,36.6,27.8,30.06,NNW,338,0.0,0.0,70,0.00,,---,0.00,VWS V14.01,2013-04-08 07:02:00,
2013-04-08 03:07:00,36.6,27.8,30.06,SE,135,0.0,0.0,70,0.00,,---,0.00,VWS V14.01,2013-04-08 07:07:00,
2013-04-08 03:12:00,36.5,27.7,30.06,SE,135,0.0,0.0,70,0.00,,---,0.00,VWS V14.01,2013-04-08 07:12:00,
2013-04-08 03:17:00,36.5,28.0,30.07,NW,315,0.0,0.0,71,0.00,,---,0.00,VWS V14.01,2013-04-08 07:17:00,
2013-04-08 03:22:00,36.3,27.8,30.07,NW,315,0.0,0.0,71,0.00,,---,0.00,VWS V14.01,2013-04-08 07:22:00,
2013-04-08 03:27:00,36.3,27.8,30.07,WNW,292,0.0,0.0,71,0.00,,---,0.00,VWS V14.01,2013-04-08 07:27:00,
2013-04-08 03:32:00,36.3,27.8,30.07,NW,315,0.0,0.0,71,0.00,,---,0.00,VWS V14.01,2013-04-08 07:32:00,
2013-04-08 03:37:00,36.3,27.8,30.07,NW,315,0.0,0.0,71,0.00,,---,0.00,VWS V14.01,2013-04-08 07:37:00,
2013-04-08 03:42:00,36.3,27.8,30.07,WNW,292,0.0,0.0,71,0.00,,---,0.00,VWS V14.01,2013-04-08 07:42:00,
2013-04-08 03:47:00,36.3,27.8,30.07,NNW,338,0.0,0.0,71,0.00,,---,0.00,VWS V14.01,2013-04-08 07:47:00,
2013-04-08 03:52:00,36.1,28.0,30.07,NW,315,0.0,0.0,72,0.00,,---,0.00,VWS V14.01,2013-04-08 07:52:00,
2013-04-08 03:57:00,36.1,28.0,30.07,NW,315,0.0,0.0,72,0.00,,---,0.00,VWS V14.01,2013-04-08 07:57:00,
2013-04-08 04:02:00,36.1,28.0,30.08,WNW,292,0.0,0.0,72,0.00,,---,0.00,VWS V14.01,2013-04-08 08:02:00,
2013-04-08 04:07:00,36.1,28.0,30.07,WNW,292,0.0,0.0,72,0.00,,---,0.00,VWS V14.01,2013-04-08 08:07:00,
2013-04-08 04:12:00,35.9,27.8,30.08,NNE,22,0.0,0.0,72,0.00,,---,0.00,VWS V14.01,2013-04-08 08:12:00,
2013-04-08 04:17:00,35.9,27.8,30.08,NW,315,0.0,0.0,72,0.00,,---,0.00,VWS V14.01,2013-04-08 08:17:00,
2013-04-08 04:22:00,35.9,27.8,30.08,NW,315,0.0,0.0,72,0.00,,---,0.00,VWS V14.01,2013-04-08 08:22:00,
2013-04-08 04:27:00,35.7,27.6,30.08,NW,315,0.0,0.0,72,0.00,,---,0.00,VWS V14.01,2013-04-08 08:27:00,
2013-04-08 04:32:00,35.7,27.6,30.08,NW,315,0.0,0.0,72,0.00,,---,0.00,VWS V14.01,2013-04-08 08:32:00,
2013-04-08 04:37:00,35.7,27.6,30.08,WNW,292,0.0,0.0,72,0.00,,---,0.00,VWS V14.01,2013-04-08 08:37:00,
2013-04-08 04:42:00,35.7,27.6,30.08,WNW,292,0.0,0.0,72,0.00,,---,0.00,VWS V14.01,2013-04-08 08:42:00,
2013-04-08 04:47:00,35.7,27.6,30.08,WNW,292,0.0,0.0,72,0.00,,---,0.00,VWS V14.01,2013-04-08 08:47:00,
2013-04-08 04:52:00,35.7,27.6,30.08,NW,315,0.0,0.0,72,0.00,,---,0.00,VWS V14.01,2013-04-08 08:52:00,
2013-04-08 04:57:00,35.7,27.6,30.09,NW,315,0.0,0.0,72,0.00,,---,0.00,VWS V14.01,2013-04-08 08:57:00,
2013-04-08 05:02:00,35.7,27.6,30.08,NW,315,0.0,0.0,72,0.00,,---,0.00,VWS V14.01,2013-04-08 09:02:00,
2013-04-08 05:07:00,35.7,27.6,30.08,NW,315,0.0,0.0,72,0.00,,---,0.00,VWS V14.01,2013-04-08 09:07:00,
2013-04-08 05:12:00,35.7,27.6,30.08,NW,315,0.0,0.0,72,0.00,,---,0.00,VWS V14.01,2013-04-08 09:12:00,
2013-04-08 05:17:00,35.7,27.6,30.09,West,270,0.0,0.0,72,0.00,,---,0.00,VWS V14.01,2013-04-08 09:17:00,
2013-04-08 05:22:00,35.6,27.5,30.09,West,270,0.0,0.0,72,0.00,,---,0.00,VWS V14.01,2013-04-08 09:22:00,
2013-04-08 05:27:00,35.4,27.3,30.09,West,270,0.0,0.0,72,0.00,,---,0.00,VWS V14.01,2013-04-08 09:27:00,
2013-04-08 05:32:00,35.4,27.3,30.09,West,270,0.0,0.0,72,0.00,,---,0.00,VWS V14.01,2013-04-08 09:32:00,
2013-04-08 05:37:00,35.4,27.3,30.09,West,270,0.0,0.0,72,0.00,,---,0.00,VWS V14.01,2013-04-08 09:37:00,
2013-04-08 05:42:00,35.4,27.3,30.09,WNW,292,0.0,0.0,72,0.00,,---,0.00,VWS V14.01,2013-04-08 09:42:00,
2013-04-08 05:47:00,35.4,27.3,30.09,West,270,0.0,0.0,72,0.00,,---,0.00,VWS V14.01,2013-04-08 09:47:00,
2013-04-08 05:52:00,35.4,27.3,30.09,West,270,0.0,0.0,72,0.00,,---,0.00,VWS V14.01,2013-04-08 09:52:00,
2013-04-08 05:57:00,35.4,27.3,30.09,West,270,0.0,0.0,72,0.00,,---,0.00,VWS V14.01,2013-04-08 09:57:00,
2013-04-08 06:02:00,35.4,27.3,30.09,WNW,292,0.0,0.0,72,0.00,,---,0.00,VWS V14.01,2013-04-08 10:02:00,
2013-04-08 06:08:00,35.4,27.6,30.10,NW,315,0.0,0.0,73,0.00,,---,0.00,VWS V14.01,2013-04-08 10:08:00,
2013-04-08 06:13:00,35.2,27.4,30.10,NW,315,0.0,0.0,73,0.00,,---,0.00,VWS V14.01,2013-04-08 10:13:00,
2013-04-08 06:18:00,35.2,27.4,30.10,NW,315,0.0,0.0,73,0.00,,---,0.00,VWS V14.01,2013-04-08 10:18:00,
2013-04-08 06:23:00,35.2,27.4,30.11,NW,315,0.0,0.0,73,0.00,,---,0.00,VWS V14.01,2013-04-08 10:23:00,
2013-04-08 06:28:00,35.2,27.4,30.11,NW,315,0.0,0.0,73,0.00,,---,0.00,VWS V14.01,2013-04-08 10:28:00,
2013-04-08 06:33:00,35.2,27.4,30.11,NW,315,0.0,0.0,73,0.00,,---,0.00,VWS V14.01,2013-04-08 10:33:00,
2013-04-08 06:38:00,35.2,27.4,30.12,NW,315,0.0,0.0,73,0.00,,---,0.00,VWS V14.01,2013-04-08 10:38:00,
2013-04-08 06:43:00,35.2,27.4,30.12,ENE,68,0.0,0.0,73,0.00,,---,0.00,VWS V14.01,2013-04-08 10:43:00,
2013-04-08 06:48:00,35.2,27.4,30.12,ENE,68,0.0,0.0,73,0.00,,---,0.00,VWS V14.01,2013-04-08 10:48:00,
2013-04-08 06:53:00,35.2,27.4,30.12,ENE,68,0.0,0.0,73,0.00,,---,0.00,VWS V14.01,2013-04-08 10:53:00,
2013-04-08 06:58:00,35.2,27.4,30.13,ENE,68,0.0,0.0,73,0.00,,---,0.00,VWS V14.01,2013-04-08 10:58:00,
2013-04-08 07:03:00,35.0,27.2,30.13,ENE,68,0.0,0.0,73,0.00,,---,0.00,VWS V14.01,2013-04-08 11:03:00,
2013-04-08 07:08:00,35.0,27.2,30.13,NE,45,0.0,0.0,73,0.00,,---,0.00,VWS V14.01,2013-04-08 11:08:00,
2013-04-08 07:13:00,34.8,27.0,30.14,NE,45,0.0,0.0,73,0.00,,---,0.00,VWS V14.01,2013-04-08 11:13:00,
2013-04-08 07:18:00,34.8,27.0,30.14,NE,45,0.0,0.0,73,0.00,,---,0.00,VWS V14.01,2013-04-08 11:18:00,
2013-04-08 07:23:00,34.8,27.0,30.14,NE,45,0.0,0.0,73,0.00,,---,0.00,VWS V14.01,2013-04-08 11:23:00,
2013-04-08 07:28:00,34.8,27.0,30.14,NE,45,0.0,0.0,73,0.00,,---,0.00,VWS V14.01,2013-04-08 11:28:00,
2013-04-08 07:33:00,34.8,27.0,30.14,NE,45,0.0,0.0,73,0.00,,---,0.00,VWS V14.01,2013-04-08 11:33:00,
2013-04-08 07:38:00,34.8,27.0,30.15,NE,45,0.0,0.0,73,0.00,,---,0.00,VWS V14.01,2013-04-08 11:38:00,
2013-04-08 07:43:00,34.8,27.0,30.14,NE,45,0.0,0.0,73,0.00,,---,0.00,VWS V14.01,2013-04-08 11:43:00,
2013-04-08 07:48:00,34.8,27.0,30.14,NE,45,0.0,0.0,73,0.00,,---,0.00,VWS V14.01,2013-04-08 11:48:00,
2013-04-08 07:53:00,34.8,27.0,30.14,NE,45,0.0,0.0,73,0.00,,---,0.00,VWS V14.01,2013-04-08 11:53:00,
2013-04-08 07:58:00,34.8,27.0,30.15,NE,45,0.0,0.0,73,0.00,,---,0.00,VWS V14.01,2013-04-08 11:58:00,
2013-04-08 08:03:00,34.8,27.0,30.15,NE,45,0.0,0.0,73,0.00,,---,0.00,VWS V14.01,2013-04-08 12:03:00,
2013-04-08 08:08:00,34.8,27.0,30.15,ESE,112,0.0,0.0,73,0.00,,---,0.00,VWS V14.01,2013-04-08 12:08:00,
2013-04-08 08:13:00,34.8,27.0,30.15,ESE,112,0.0,0.0,73,0.00,,---,0.00,VWS V14.01,2013-04-08 12:13:00,
2013-04-08 08:18:00,34.8,27.0,30.15,ESE,112,0.0,0.0,73,0.00,,---,0.00,VWS V14.01,2013-04-08 12:18:00,
2013-04-08 08:23:00,34.8,27.0,30.15,ESE,112,0.0,0.0,73,0.00,,---,0.00,VWS V14.01,2013-04-08 12:23:00,
2013-04-08 08:28:00,34.8,27.0,30.15,ESE,112,0.0,0.0,73,0.00,,---,0.00,VWS V14.01,2013-04-08 12:28:00,
2013-04-08 08:33:00,34.8,27.0,30.15,ESE,112,0.0,0.0,73,0.00,,---,0.00,VWS V14.01,2013-04-08 12:33:00,
2013-04-08 08:38:00,34.8,27.0,30.15,ESE,112,0.0,0.0,73,0.00,,---,0.00,VWS V14.01,2013-04-08 12:38:00,
2013-04-08 08:43:00,35.0,27.2,30.14,ESE,112,0.0,0.0,73,0.00,,---,0.00,VWS V14.01,2013-04-08 12:43:00,
2013-04-08 08:48:00,35.2,27.4,30.14,ESE,112,0.0,0.0,73,0.00,,---,0.00,VWS V14.01,2013-04-08 12:48:00,
2013-04-08 08:53:00,35.2,27.4,30.14,ESE,112,0.0,0.0,73,0.00,,---,0.00,VWS V14.01,2013-04-08 12:53:00,
2013-04-08 08:58:00,35.2,27.4,30.14,ESE,112,0.0,0.0,73,0.00,,---,0.00,VWS V14.01,2013-04-08 12:58:00,
2013-04-08 09:03:00,35.2,27.4,30.15,ESE,112,0.0,0.0,73,0.00,,---,0.00,VWS V14.01,2013-04-08 13:03:00,
2013-04-08 09:08:00,35.4,27.6,30.15,ENE,68,0.0,0.0,73,0.00,,---,0.00,VWS V14.01,2013-04-08 13:08:00,
2013-04-08 09:13:00,35.4,27.6,30.15,NNW,338,0.0,0.0,73,0.00,,---,0.00,VWS V14.01,2013-04-08 13:13:00,
2013-04-08 09:18:00,35.4,27.6,30.15,NNW,338,0.0,0.0,73,0.00,,---,0.00,VWS V14.01,2013-04-08 13:18:00,
2013-04-08 09:23:00,35.6,27.8,30.16,NNW,338,0.0,0.0,73,0.00,,---,0.00,VWS V14.01,2013-04-08 13:23:00,
2013-04-08 09:28:00,35.7,27.9,30.16,NW,315,0.0,0.0,73,0.00,,---,0.00,VWS V14.01,2013-04-08 13:28:00,
2013-04-08 09:33:00,35.7,27.9,30.16,ENE,68,0.0,0.0,73,0.00,,---,0.00,VWS V14.01,2013-04-08 13:33:00,
2013-04-08 09:38:00,35.9,28.1,30.16,North,0,0.0,0.0,73,0.00,,---,0.00,VWS V14.01,2013-04-08 13:38:00,
2013-04-08 09:43:00,35.9,27.8,30.17,NW,315,0.0,0.0,72,0.00,,---,0.00,VWS V14.01,2013-04-08 13:43:00,
2013-04-08 09:48:00,36.1,28.0,30.17,NW,315,0.0,0.0,72,0.00,,---,0.00,VWS V14.01,2013-04-08 13:48:00,
2013-04-08 09:53:00,36.1,28.0,30.17,NNW,338,0.0,0.0,72,0.00,,---,0.00,VWS V14.01,2013-04-08 13:53:00,
2013-04-08 09:58:00,36.3,28.1,30.18,NW,315,1.3,1.3,72,0.00,,---,0.00,VWS V14.01,2013-04-08 13:58:00,
2013-04-08 10:03:00,36.3,28.1,30.18,NW,315,0.0,0.0,72,0.00,,---,0.00,VWS V14.01,2013-04-08 14:03:00,
2013-04-08 10:08:00,36.3,28.1,30.18,NW,315,0.0,0.0,72,0.00,,---,0.00,VWS V14.01,2013-04-08 14:08:00,
2013-04-08 10:13:00,36.5,28.4,30.18,WNW,292,0.0,0.0,72,0.00,,---,0.00,VWS V14.01,2013-04-08 14:13:00,
2013-04-08 10:18:00,36.6,28.4,30.18,West,270,0.0,0.0,72,0.00,,---,0.00,VWS V14.01,2013-04-08 14:18:00,
2013-04-08 10:23:00,36.8,28.3,30.19,WNW,292,0.0,0.0,71,0.00,,---,0.00,VWS V14.01,2013-04-08 14:23:00,
2013-04-08 10:28:00,37.0,28.5,30.19,West,270,0.0,0.0,71,0.00,,---,0.00,VWS V14.01,2013-04-08 14:28:00,
2013-04-08 10:33:00,37.2,28.7,30.18,WNW,292,0.0,0.0,71,0.00,,---,0.00,VWS V14.01,2013-04-08 14:33:00,
2013-04-08 10:38:00,37.4,28.9,30.18,WNW,292,0.0,0.0,71,0.00,,---,0.00,VWS V14.01,2013-04-08 14:38:00,
2013-04-08 10:43:00,37.7,29.2,30.19,WNW,292,0.0,0.0,71,0.00,,---,0.00,VWS V14.01,2013-04-08 14:43:00,
2013-04-08 10:48:00,37.9,29.0,30.19,NW,315,0.0,0.0,70,0.00,,---,0.00,VWS V14.01,2013-04-08 14:48:00,
2013-04-08 10:53:00,38.4,29.5,30.19,WNW,292,0.0,0.0,70,0.00,,---,0.00,VWS V14.01,2013-04-08 14:53:00,
2013-04-08 10:58:00,39.0,30.1,30.19,NW,315,0.0,0.0,70,0.00,,---,0.00,VWS V14.01,2013-04-08 14:58:00,
2013-04-08 11:03:00,39.2,29.9,30.19,NW,315,0.0,0.0,69,0.00,,---,0.00,VWS V14.01,2013-04-08 15:03:00,
2013-04-08 11:08:00,39.3,29.6,30.19,ENE,68,0.0,0.0,68,0.00,,---,0.00,VWS V14.01,2013-04-08 15:08:00,
2013-04-08 11:13:00,40.2,30.9,30.18,NE,45,0.0,0.0,69,0.00,,---,0.00,VWS V14.01,2013-04-08 15:13:00,
2013-04-08 11:18:00,40.8,31.1,30.17,NW,315,0.0,0.0,68,0.00,,---,0.00,VWS V14.01,2013-04-08 15:18:00,
2013-04-08 11:23:00,41.1,31.0,30.17,NW,315,0.0,0.0,67,0.00,,---,0.00,VWS V14.01,2013-04-08 15:23:00,
2013-04-08 11:28:00,41.5,31.0,30.17,NW,315,0.0,0.0,66,0.00,,---,0.00,VWS V14.01,2013-04-08 15:28:00,
2013-04-08 11:33:00,42.0,31.9,30.17,ESE,112,0.0,0.0,67,0.00,,---,0.00,VWS V14.01,2013-04-08 15:33:00,
2013-04-08 11:38:00,43.1,32.9,30.18,ESE,112,0.0,0.0,67,0.00,,---,0.00,VWS V14.01,2013-04-08 15:38:00,
2013-04-08 11:43:00,43.8,33.2,30.17,ESE,112,0.0,0.0,66,0.00,,---,0.00,VWS V14.01,2013-04-08 15:43:00,
2013-04-08 11:48:00,44.7,33.3,30.17,NNE,22,0.0,0.0,64,0.00,,---,0.00,VWS V14.01,2013-04-08 15:48:00,
2013-04-08 11:53:00,45.1,33.3,30.17,North,0,0.0,0.0,63,0.00,,---,0.00,VWS V14.01,2013-04-08 15:53:00,
2013-04-08 11:58:00,45.6,33.8,30.17,NNW,338,0.0,0.0,63,0.00,,---,0.00,VWS V14.01,2013-04-08 15:58:00,
2013-04-08 12:03:00,46.0,33.7,30.17,East,90,0.0,0.0,62,0.00,,---,0.00,VWS V14.01,2013-04-08 16:03:00,
2013-04-08 12:08:00,46.5,34.2,30.16,ESE,112,0.0,0.0,62,0.00,,---,0.00,VWS V14.01,2013-04-08 16:08:00,
2013-04-08 12:13:00,47.3,34.5,30.16,ESE,112,0.0,0.0,61,0.00,,---,0.00,VWS V14.01,2013-04-08 16:13:00,
2013-04-08 12:18:00,47.6,34.4,30.16,ESE,112,0.0,0.0,60,0.00,,---,0.00,VWS V14.01,2013-04-08 16:18:00,
2013-04-08 12:23:00,48.0,34.4,30.16,ESE,112,0.0,0.0,59,0.00,,---,0.00,VWS V14.01,2013-04-08 16:23:00,
2013-04-08 12:28:00,48.9,35.2,30.16,ESE,112,0.0,0.0,59,0.00,,---,0.00,VWS V14.01,2013-04-08 16:28:00,
2013-04-08 12:33:00,49.2,35.1,30.16,ESE,112,0.0,0.0,58,0.00,,---,0.00,VWS V14.01,2013-04-08 16:33:00,
2013-04-08 12:38:00,49.6,35.5,30.16,NNE,22,0.0,0.0,58,0.00,,---,0.00,VWS V14.01,2013-04-08 16:38:00,
2013-04-08 12:43:00,50.5,35.4,30.16,NNW,338,0.0,0.0,56,0.00,,---,0.00,VWS V14.01,2013-04-08 16:43:00,
2013-04-08 12:48:00,50.7,35.1,30.15,NW,315,0.0,0.0,55,0.00,,---,0.00,VWS V14.01,2013-04-08 16:48:00,
2013-04-08 12:53:00,51.0,35.4,30.15,NW,315,0.0,0.0,55,0.00,,---,0.00,VWS V14.01,2013-04-08 16:53:00,
2013-04-08 12:58:00,51.6,36.4,30.16,NNW,338,0.0,0.0,56,0.00,,---,0.00,VWS V14.01,2013-04-08 16:58:00,
2013-04-08 13:03:00,52.3,36.6,30.16,NE,45,0.0,0.0,55,0.00,,---,0.00,VWS V14.01,2013-04-08 17:03:00,
2013-04-08 13:08:00,52.7,36.1,30.16,NW,315,0.0,0.0,53,0.00,,---,0.00,VWS V14.01,2013-04-08 17:08:00,
2013-04-08 13:13:00,52.7,35.6,30.16,NW,315,5.5,5.5,52,0.00,,---,0.00,VWS V14.01,2013-04-08 17:13:00,
2013-04-08 13:18:00,52.3,34.7,30.16,NW,315,0.0,0.0,51,0.00,,---,0.00,VWS V14.01,2013-04-08 17:18:00,
2013-04-08 13:23:00,52.3,34.7,30.16,NW,315,0.0,0.0,51,0.00,,---,0.00,VWS V14.01,2013-04-08 17:23:00,
2013-04-08 13:28:00,52.5,34.9,30.16,WSW,248,0.0,0.0,51,0.00,,---,0.00,VWS V14.01,2013-04-08 17:28:00,
2013-04-08 13:33:00,52.8,35.2,30.16,WSW,248,0.0,0.0,51,0.00,,---,0.00,VWS V14.01,2013-04-08 17:33:00,
2013-04-08 13:38:00,53.4,35.7,30.16,WSW,248,0.0,0.0,51,0.00,,---,0.00,VWS V14.01,2013-04-08 17:38:00,
2013-04-08 13:43:00,53.7,36.0,30.16,WSW,248,0.0,0.0,51,0.00,,---,0.00,VWS V14.01,2013-04-08 17:43:00,
2013-04-08 13:48:00,54.6,36.8,30.15,WSW,248,0.0,0.0,51,0.00,,---,0.00,VWS V14.01,2013-04-08 17:48:00,
2013-04-08 13:53:00,55.0,36.2,30.15,WSW,248,0.0,0.0,49,0.00,,---,0.00,VWS V14.01,2013-04-08 17:53:00,
2013-04-08 13:58:00,55.2,35.3,30.15,WSW,248,0.0,0.0,47,0.00,,---,0.00,VWS V14.01,2013-04-08 17:58:00,
2013-04-08 14:03:00,54.8,35.0,30.15,WSW,248,0.0,0.0,47,0.00,,---,0.00,VWS V14.01,2013-04-08 18:03:00,
2013-04-08 14:08:00,55.0,34.6,30.15,WSW,248,0.0,0.0,46,0.00,,---,0.00,VWS V14.01,2013-04-08 18:08:00,
2013-04-08 14:13:00,55.2,35.9,30.14,WSW,248,0.0,0.0,48,0.00,,---,0.00,VWS V14.01,2013-04-08 18:13:00,
2013-04-08 14:18:00,55.9,36.5,30.14,WSW,248,0.0,0.0,48,0.00,,---,0.00,VWS V14.01,2013-04-08 18:18:00,
2013-04-08 14:23:00,57.0,37.0,30.14,WSW,248,0.0,0.0,47,0.00,,---,0.00,VWS V14.01,2013-04-08 18:23:00,
2013-04-08 14:28:00,57.7,37.6,30.14,WSW,248,2.0,2.0,47,0.00,,---,0.00,VWS V14.01,2013-04-08 18:28:00,
2013-04-08 14:33:00,58.2,38.1,30.14,WSW,248,0.0,0.0,47,0.00,,---,0.00,VWS V14.01,2013-04-08 18:33:00,
2013-04-08 14:38:00,58.8,37.5,30.13,WSW,248,0.0,0.0,45,0.00,,---,0.00,VWS V14.01,2013-04-08 18:38:00,
2013-04-08 14:43:00,58.8,37.0,30.13,WSW,248,0.0,0.0,44,0.00,,---,0.00,VWS V14.01,2013-04-08 18:43:00,
2013-04-08 14:48:00,58.8,37.5,30.13,WSW,248,0.0,0.0,45,0.00,,---,0.00,VWS V14.01,2013-04-08 18:48:00,
2013-04-08 14:53:00,59.7,37.8,30.12,WSW,248,0.0,0.0,44,0.00,,---,0.00,VWS V14.01,2013-04-08 18:53:00,
2013-04-08 14:58:00,59.7,37.2,30.12,WSW,248,0.0,0.0,43,0.00,,---,0.00,VWS V14.01,2013-04-08 18:58:00,
2013-04-08 15:03:00,59.5,36.4,30.12,WSW,248,0.0,0.0,42,0.00,,---,0.00,VWS V14.01,2013-04-08 19:03:00,
2013-04-08 15:08:00,59.3,36.2,30.11,WSW,248,0.0,0.0,42,0.00,,---,0.00,VWS V14.01,2013-04-08 19:08:00,
2013-04-08 15:13:00,58.8,35.2,30.11,WSW,248,2.6,2.6,41,0.00,,---,0.00,VWS V14.01,2013-04-08 19:13:00,
2013-04-08 15:18:00,58.8,35.2,30.12,WSW,248,0.0,0.0,41,0.00,,---,0.00,VWS V14.01,2013-04-08 19:18:00,
2013-04-08 15:23:00,58.1,35.2,30.12,WSW,248,0.0,0.0,42,0.00,,---,0.00,VWS V14.01,2013-04-08 19:23:00,
2013-04-08 15:28:00,57.9,34.4,30.12,WSW,248,0.0,0.0,41,0.00,,---,0.00,VWS V14.01,2013-04-08 19:28:00,
2013-04-08 15:33:00,57.9,34.4,30.11,WSW,248,1.1,1.1,41,0.00,,---,0.00,VWS V14.01,2013-04-08 19:33:00,
2013-04-08 15:38:00,57.9,35.0,30.10,WSW,248,0.0,0.0,42,0.00,,---,0.00,VWS V14.01,2013-04-08 19:38:00,
2013-04-08 15:43:00,58.1,35.2,30.10,WSW,248,0.0,0.0,42,0.00,,---,0.00,VWS V14.01,2013-04-08 19:43:00,
2013-04-08 15:48:00,58.2,35.2,30.09,WSW,248,0.0,0.0,42,0.00,,---,0.00,VWS V14.01,2013-04-08 19:48:00,
2013-04-08 15:53:00,58.8,35.8,30.09,WSW,248,0.0,0.0,42,0.00,,---,0.00,VWS V14.01,2013-04-08 19:53:00,
2013-04-08 15:58:00,58.6,35.0,30.09,WSW,248,0.0,0.0,41,0.00,,---,0.00,VWS V14.01,2013-04-08 19:58:00,
2013-04-08 16:03:00,58.4,34.8,30.09,North,0,0.0,0.0,41,0.00,,---,0.00,VWS V14.01,2013-04-08 20:03:00,
2013-04-08 16:08:00,58.2,35.2,30.08,NNW,338,0.0,0.0,42,0.00,,---,0.00,VWS V14.01,2013-04-08 20:08:00,
2013-04-08 16:13:00,58.8,35.8,30.08,NNW,338,0.0,0.0,42,0.00,,---,0.00,VWS V14.01,2013-04-08 20:13:00,
2013-04-08 16:18:00,58.8,35.8,30.08,NNW,338,0.0,0.0,42,0.00,,---,0.00,VWS V14.01,2013-04-08 20:18:00,
2013-04-08 16:23:00,59.7,36.0,30.07,SE,135,0.0,0.0,41,0.00,,---,0.00,VWS V14.01,2013-04-08 20:23:00,
2013-04-08 16:28:00,60.4,36.6,30.07,SE,135,0.0,0.0,41,0.00,,---,0.00,VWS V14.01,2013-04-08 20:28:00,
2013-04-08 16:33:00,60.6,36.8,30.07,SE,135,0.0,0.0,41,0.00,,---,0.00,VWS V14.01,2013-04-08 20:33:00,
2013-04-08 16:38:00,61.5,36.3,30.07,SSE,158,0.0,0.0,39,0.00,,---,0.00,VWS V14.01,2013-04-08 20:38:00,
2013-04-08 16:43:00,61.5,35.7,30.08,SSE,158,0.0,0.0,38,0.00,,---,0.00,VWS V14.01,2013-04-08 20:43:00,
2013-04-08 16:48:00,61.7,35.9,30.08,SE,135,0.0,0.0,38,0.00,,---,0.00,VWS V14.01,2013-04-08 20:48:00,
2013-04-08 16:53:00,61.3,34.8,30.08,SE,135,4.9,4.9,37,0.00,,---,0.00,VWS V14.01,2013-04-08 20:53:00,
2013-04-08 16:58:00,60.9,34.5,30.08,SE,135,1.7,1.7,37,0.00,,---,0.00,VWS V14.01,2013-04-08 20:58:00,
2013-04-08 17:03:00,60.8,34.4,30.07,SE,135,0.0,0.0,37,0.00,,---,0.00,VWS V14.01,2013-04-08 21:03:00,
2013-04-08 17:08:00,60.4,34.0,30.07,SE,135,0.0,0.0,37,0.00,,---,0.00,VWS V14.01,2013-04-08 21:08:00,
2013-04-08 17:13:00,60.0,34.3,30.07,SE,135,3.3,3.3,38,0.00,,---,0.00,VWS V14.01,2013-04-08 21:13:00,
2013-04-08 17:18:00,59.9,34.2,30.07,SSE,158,0.0,0.0,38,0.00,,---,0.00,VWS V14.01,2013-04-08 21:18:00,
2013-04-08 17:23:00,59.3,33.7,30.07,SE,135,0.0,0.0,38,0.00,,---,0.00,VWS V14.01,2013-04-08 21:23:00,
2013-04-08 17:28:00,58.8,33.3,30.07,SSE,158,0.0,0.0,38,0.00,,---,0.00,VWS V14.01,2013-04-08 21:28:00,
2013-04-08 17:33:00,58.8,33.3,30.07,SE,135,0.0,0.0,38,0.00,,---,0.00,VWS V14.01,2013-04-08 21:33:00,
2013-04-08 17:38:00,58.8,33.3,30.07,SE,135,0.0,0.0,38,0.00,,---,0.00,VWS V14.01,2013-04-08 21:38:00,
2013-04-08 17:43:00,58.4,32.9,30.07,SE,135,0.0,0.0,38,0.00,,---,0.00,VWS V14.01,2013-04-08 21:43:00,
2013-04-08 17:48:00,58.2,33.4,30.08,SE,135,0.0,0.0,39,0.00,,---,0.00,VWS V14.01,2013-04-08 21:48:00,
2013-04-08 17:53:00,57.9,33.1,30.07,SE,135,0.0,0.0,39,0.00,,---,0.00,VWS V14.01,2013-04-08 21:53:00,
2013-04-08 17:58:00,57.7,32.9,30.07,SE,135,0.0,0.0,39,0.00,,---,0.00,VWS V14.01,2013-04-08 21:58:00,
2013-04-08 18:03:00,57.5,32.8,30.07,SE,135,0.0,0.0,39,0.00,,---,0.00,VWS V14.01,2013-04-08 22:03:00,
2013-04-08 18:08:00,57.0,32.3,30.07,SE,135,0.0,0.0,39,0.00,,---,0.00,VWS V14.01,2013-04-08 22:08:00,
2013-04-08 18:13:00,56.8,32.8,30.06,SE,135,0.0,0.0,40,0.00,,---,0.00,VWS V14.01,2013-04-08 22:13:00,
2013-04-08 18:18:00,56.4,32.4,30.07,SE,135,0.0,0.0,40,0.00,,---,0.00,VWS V14.01,2013-04-08 22:18:00,
2013-04-08 18:23:00,56.3,32.3,30.07,SE,135,0.0,0.0,40,0.00,,---,0.00,VWS V14.01,2013-04-08 22:23:00,
2013-04-08 18:28:00,55.9,32.0,30.07,SE,135,0.0,0.0,40,0.00,,---,0.00,VWS V14.01,2013-04-08 22:28:00,
2013-04-08 18:33:00,55.7,32.4,30.07,SE,135,0.0,0.0,41,0.00,,---,0.00,VWS V14.01,2013-04-08 22:33:00,
2013-04-08 18:38:00,55.2,32.5,30.07,SE,135,0.0,0.0,42,0.00,,---,0.00,VWS V14.01,2013-04-08 22:38:00,
2013-04-08 18:43:00,55.0,32.3,30.07,SE,135,0.0,0.0,42,0.00,,---,0.00,VWS V14.01,2013-04-08 22:43:00,
2013-04-08 18:48:00,54.5,31.9,30.08,SE,135,0.0,0.0,42,0.00,,---,0.00,VWS V14.01,2013-04-08 22:48:00,
2013-04-08 18:53:00,54.1,32.1,30.08,SSE,158,0.0,0.0,43,0.00,,---,0.00,VWS V14.01,2013-04-08 22:53:00,
2013-04-08 18:58:00,53.9,31.9,30.07,SSE,158,0.0,0.0,43,0.00,,---,0.00,VWS V14.01,2013-04-08 22:58:00,
2013-04-08 19:03:00,53.4,31.5,30.07,SE,135,0.0,0.0,43,0.00,,---,0.00,VWS V14.01,2013-04-08 23:03:00,
2013-04-08 19:08:00,52.8,31.5,30.08,SE,135,0.0,0.0,44,0.00,,---,0.00,VWS V14.01,2013-04-08 23:08:00,
2013-04-08 19:13:00,52.5,31.2,30.07,SE,135,0.0,0.0,44,0.00,,---,0.00,VWS V14.01,2013-04-08 23:13:00,
2013-04-08 19:18:00,52.3,31.0,30.08,SE,135,0.0,0.0,44,0.00,,---,0.00,VWS V14.01,2013-04-08 23:18:00,
2013-04-08 19:23:00,51.6,30.4,30.07,SE,135,0.0,0.0,44,0.00,,---,0.00,VWS V14.01,2013-04-08 23:23:00,
2013-04-08 19:28:00,51.4,30.8,30.07,SE,135,0.0,0.0,45,0.00,,---,0.00,VWS V14.01,2013-04-08 23:28:00,
2013-04-08 19:33:00,50.9,30.3,30.07,SE,135,0.0,0.0,45,0.00,,---,0.00,VWS V14.01,2013-04-08 23:33:00,
2013-04-08 19:38:00,50.5,30.5,30.07,SE,135,0.0,0.0,46,0.00,,---,0.00,VWS V14.01,2013-04-08 23:38:00,
2013-04-08 19:43:00,50.1,30.1,30.07,SSE,158,0.0,0.0,46,0.00,,---,0.00,VWS V14.01,2013-04-08 23:43:00,
2013-04-08 19:48:00,49.8,30.4,30.07,SSE,158,0.0,0.0,47,0.00,,---,0.00,VWS V14.01,2013-04-08 23:48:00,
2013-04-08 19:53:00,49.1,29.8,30.08,SSE,158,0.0,0.0,47,0.00,,---,0.00,VWS V14.01,2013-04-08 23:53:00,
2013-04-08 19:58:00,48.7,29.9,30.07,SSE,158,0.0,0.0,48,0.00,,---,0.00,VWS V14.01,2013-04-08 23:58:00,
2013-04-08 20:03:00,48.3,29.0,30.08,SSE,158,0.0,0.0,47,0.00,,---,0.00,VWS V14.01,2013-04-09 00:03:00,
2013-04-08 20:08:00,48.0,29.3,30.07,SSE,158,0.0,0.0,48,0.00,,---,0.00,VWS V14.01,2013-04-09 00:08:00,
2013-04-08 20:13:00,47.8,29.1,30.08,SSE,158,0.0,0.0,48,0.00,,---,0.00,VWS V14.01,2013-04-09 00:13:00,
2013-04-08 20:18:00,47.4,29.2,30.08,SSE,158,0.0,0.0,49,0.00,,---,0.00,VWS V14.01,2013-04-09 00:18:00,
2013-04-08 20:23:00,46.9,28.8,30.08,SSE,158,0.0,0.0,49,0.00,,---,0.00,VWS V14.01,2013-04-09 00:23:00,
2013-04-08 20:28:00,46.5,28.9,30.07,North,0,0.0,0.0,50,0.00,,---,0.00,VWS V14.01,2013-04-09 00:28:00,
2013-04-08 20:33:00,46.2,28.6,30.07,North,0,0.0,0.0,50,0.00,,---,0.00,VWS V14.01,2013-04-09 00:33:00,
2013-04-08 20:38:00,46.0,28.9,30.08,ESE,112,0.0,0.0,51,0.00,,---,0.00,VWS V14.01,2013-04-09 00:38:00,
2013-04-08 20:43:00,45.6,28.5,30.07,ESE,112,0.0,0.0,51,0.00,,---,0.00,VWS V14.01,2013-04-09 00:43:00,
2013-04-08 20:48:00,45.6,29.0,30.07,ESE,112,0.0,0.0,52,0.00,,---,0.00,VWS V14.01,2013-04-09 00:48:00,
2013-04-08 20:53:00,45.3,28.7,30.07,ESE,112,0.0,0.0,52,0.00,,---,0.00,VWS V14.01,2013-04-09 00:53:00,
2013-04-08 20:58:00,45.1,28.5,30.07,ESE,112,0.0,0.0,52,0.00,,---,0.00,VWS V14.01,2013-04-09 00:58:00,
2013-04-08 21:03:00,45.1,29.0,30.07,ENE,68,0.0,0.0,53,0.00,,---,0.00,VWS V14.01,2013-04-09 01:03:00,
2013-04-08 21:08:00,44.9,28.8,30.07,SE,135,0.0,0.0,53,0.00,,---,0.00,VWS V14.01,2013-04-09 01:08:00,
2013-04-08 21:13:00,44.9,28.8,30.06,SSE,158,0.0,0.0,53,0.00,,---,0.00,VWS V14.01,2013-04-09 01:13:00,
2013-04-08 21:18:00,44.9,28.8,30.06,South,180,0.0,0.0,53,0.00,,---,0.00,VWS V14.01,2013-04-09 01:18:00,
2013-04-08 21:23:00,44.9,28.8,30.06,South,180,0.0,0.0,53,0.00,,---,0.00,VWS V14.01,2013-04-09 01:23:00,
2013-04-08 21:28:00,44.9,28.8,30.06,South,180,0.0,0.0,53,0.00,,---,0.00,VWS V14.01,2013-04-09 01:28:00,
2013-04-08 21:33:00,44.9,28.8,30.06,South,180,0.0,0.0,53,0.00,,---,0.00,VWS V14.01,2013-04-09 01:33:00,
2013-04-08 21:38:00,44.9,28.8,30.06,South,180,0.0,0.0,53,0.00,,---,0.00,VWS V14.01,2013-04-09 01:38:00,
2013-04-08 21:43:00,44.7,29.1,30.06,South,180,0.0,0.0,54,0.00,,---,0.00,VWS V14.01,2013-04-09 01:43:00,
2013-04-08 21:48:00,44.7,29.1,30.05,South,180,0.0,0.0,54,0.00,,---,0.00,VWS V14.01,2013-04-09 01:48:00,
2013-04-08 21:53:00,44.7,29.1,30.05,South,180,0.0,0.0,54,0.00,,---,0.00,VWS V14.01,2013-04-09 01:53:00,
2013-04-08 21:58:00,44.7,29.1,30.05,SSE,158,0.0,0.0,54,0.00,,---,0.00,VWS V14.01,2013-04-09 01:58:00,
2013-04-08 22:03:00,44.7,29.1,30.04,SSE,158,0.0,0.0,54,0.00,,---,0.00,VWS V14.01,2013-04-09 02:03:00,
2013-04-08 22:08:00,44.9,29.3,30.03,SSE,158,0.0,0.0,54,0.00,,---,0.00,VWS V14.01,2013-04-09 02:08:00,
2013-04-08 22:13:00,45.1,29.5,30.02,SSE,158,0.0,0.0,54,0.00,,---,0.00,VWS V14.01,2013-04-09 02:13:00,
2013-04-08 22:18:00,45.1,29.5,30.02,SSE,158,0.0,0.0,54,0.00,,---,0.00,VWS V14.01,2013-04-09 02:18:00,
2013-04-08 22:23:00,45.1,29.5,30.02,SW,225,0.0,0.0,54,0.00,,---,0.00,VWS V14.01,2013-04-09 02:23:00,
2013-04-08 22:28:00,44.9,29.3,30.03,SW,225,0.0,0.0,54,0.00,,---,0.00,VWS V14.01,2013-04-09 02:28:00,
2013-04-08 22:33:00,44.9,29.7,30.02,SW,225,0.0,0.0,55,0.00,,---,0.00,VWS V14.01,2013-04-09 02:33:00,
2013-04-08 22:38:00,44.9,30.2,30.02,SW,225,0.0,0.0,56,0.00,,---,0.00,VWS V14.01,2013-04-09 02:38:00,
2013-04-08 22:43:00,44.9,30.6,30.01,SE,135,0.0,0.0,57,0.00,,---,0.00,VWS V14.01,2013-04-09 02:43:00,
2013-04-08 22:48:00,44.9,31.0,30.02,SE,135,0.0,0.0,58,0.00,,---,0.00,VWS V14.01,2013-04-09 02:48:00,
2013-04-08 22:54:00,44.9,31.0,30.01,SE,135,9.8,9.8,58,0.00,,---,0.00,VWS V14.01,2013-04-09 02:54:00,
2013-04-08 22:59:00,45.1,31.6,30.01,SE,135,10.7,10.7,59,0.00,,---,0.00,VWS V14.01,2013-04-09 02:59:00,
2013-04-08 23:04:00,45.5,32.4,30.01,SE,135,7.1,7.1,60,0.00,,---,0.00,VWS V14.01,2013-04-09 03:04:00,
2013-04-08 23:09:00,45.5,32.4,30.00,SE,135,6.7,6.7,60,0.00,,---,0.00,VWS V14.01,2013-04-09 03:09:00,
2013-04-08 23:14:00,45.5,32.8,30.00,SE,135,4.4,4.4,61,0.00,,---,0.00,VWS V14.01,2013-04-09 03:14:00,
2013-04-08 23:19:00,45.3,33.1,29.99,SSE,158,8.5,8.5,62,0.00,,---,0.00,VWS V14.01,2013-04-09 03:19:00,
2013-04-08 23:24:00,45.1,33.3,29.99,SE,135,5.3,5.3,63,0.00,,---,0.00,VWS V14.01,2013-04-09 03:24:00,
2013-04-08 23:29:00,44.9,33.5,29.99,SSE,158,5.8,5.8,64,0.00,,---,0.00,VWS V14.01,2013-04-09 03:29:00,
2013-04-08 23:34:00,44.7,33.3,29.99,SE,135,10.9,10.9,64,0.00,,---,0.00,VWS V14.01,2013-04-09 03:34:00,
2013-04-08 23:39:00,44.6,33.6,29.98,SSE,158,5.1,5.1,65,0.02,,---,0.02,VWS V14.01,2013-04-09 03:39:00,
2013-04-08 23:44:00,44.6,33.6,29.98,SE,135,5.5,5.5,65,0.02,,---,0.02,VWS V14.01,2013-04-09 03:44:00,
2013-04-08 23:49:00,44.6,34.0,29.98,SE,135,0.0,6.4,66,0.02,,---,0.02,VWS V14.01,2013-04-09 03:49:00,
2013-04-08 23:54:00,44.6,34.0,29.98,SE,135,4.6,4.6,66,0.02,,---,0.02,VWS V14.01,2013-04-09 03:54:00,
2013-04-08 23:59:00,44.7,34.4,29.97,SE,135,2.9,2.9,67,0.02,,---,0.02,VWS V14.01,2013-04-09 03:59:00,